createdAt,value
2023-04-16T00:01:47.718Z,9.80
2023-04-16T00:07:41.413Z,9.90
2023-04-16T00:13:36.396Z,10.10
2023-04-16T00:19:29.966Z,9.70
2023-04-16T00:25:23.140Z,9.60
2023-04-16T00:31:18.258Z,9.50
2023-04-16T00:37:11.802Z,9.20
2023-04-16T00:43:05.352Z,9.40
2023-04-16T00:49:02.697Z,9.40
2023-04-16T00:54:56.435Z,9.50
2023-04-16T01:00:49.938Z,9.20
2023-04-16T01:06:45.217Z,9.20
2023-04-16T01:12:39.044Z,9.40
2023-04-16T01:18:32.531Z,9.30
2023-04-16T01:24:27.395Z,9.30
2023-04-16T01:30:21.144Z,9.40
2023-04-16T01:36:24.955Z,9.10
2023-04-16T01:42:19.859Z,8.80
2023-04-16T01:48:13.670Z,9.10
2023-04-16T01:54:07.231Z,9.20
2023-04-16T02:00:01.648Z,9.30
2023-04-16T02:05:57.100Z,9.40
2023-04-16T02:11:50.708Z,9.40
2023-04-16T02:17:46.538Z,9.40
2023-04-16T02:23:41.479Z,9.50
2023-04-16T02:29:34.618Z,9.40
2023-04-16T02:35:40.002Z,9.50
2023-04-16T02:41:34.119Z,9.40
2023-04-16T02:47:27.678Z,9.60
2023-04-16T02:53:22.698Z,9.60
2023-04-16T02:59:16.260Z,9.20
2023-04-16T03:05:10.246Z,9.30
2023-04-16T03:11:05.106Z,9.20
2023-04-16T03:16:58.597Z,9.40
2023-04-16T03:22:53.676Z,9.50
2023-04-16T03:28:48.598Z,9.50
2023-04-16T03:34:42.259Z,9.50
2023-04-16T03:40:36.065Z,9.50
2023-04-16T03:46:31.027Z,9.70
2023-04-16T03:52:24.686Z,9.80
2023-04-16T03:58:19.940Z,9.70
2023-04-16T04:04:15.782Z,9.50
2023-04-16T04:10:11.022Z,9.40
2023-04-16T04:16:07.713Z,9.50
2023-04-16T04:22:02.677Z,9.80
2023-04-16T04:27:55.976Z,9.60
2023-04-16T04:33:49.071Z,9.80
2023-04-16T04:39:44.020Z,9.50
2023-04-16T04:45:38.874Z,9.60
2023-04-16T04:51:32.724Z,9.70
2023-04-16T04:57:27.637Z,9.70
2023-04-16T05:03:23.461Z,9.70
2023-04-16T05:09:17.018Z,9.60
2023-04-16T05:15:12.289Z,9.50
2023-04-16T05:21:05.877Z,9.60
2023-04-16T05:26:59.410Z,9.60
2023-04-16T05:32:53.888Z,9.70
2023-04-16T05:38:47.050Z,9.70
2023-04-16T05:44:41.414Z,9.70
2023-04-16T05:50:36.208Z,9.70
2023-04-16T05:56:29.832Z,9.60
2023-04-16T06:02:23.068Z,9.60
2023-04-16T06:08:17.651Z,9.60
2023-04-16T06:14:10.732Z,9.70
2023-04-16T06:20:03.916Z,9.70
2023-04-16T06:25:58.369Z,9.70
2023-04-16T06:31:51.701Z,9.70
2023-04-16T06:37:45.224Z,9.70
2023-04-16T06:43:40.220Z,9.70
2023-04-16T06:49:33.719Z,9.80
2023-04-16T06:55:26.777Z,9.80
2023-04-16T07:01:21.657Z,9.80
2023-04-16T07:07:15.175Z,10.00
2023-04-16T07:13:08.752Z,10.00
2023-04-16T07:19:03.175Z,10.00
2023-04-16T07:24:56.888Z,10.10
2023-04-16T07:30:51.065Z,10.10
2023-04-16T07:36:45.563Z,10.00
2023-04-16T07:42:38.677Z,10.00
2023-04-16T07:48:32.238Z,10.10
2023-04-16T07:54:28.484Z,10.10
2023-04-16T08:00:22.450Z,10.20
2023-04-16T08:06:16.081Z,10.20
2023-04-16T08:12:10.604Z,10.40
2023-04-16T08:18:06.182Z,10.40
2023-04-16T08:23:59.396Z,10.40
2023-04-16T08:29:54.357Z,10.50
2023-04-16T08:35:47.651Z,10.40
2023-04-16T08:41:44.896Z,10.40
2023-04-16T08:47:40.186Z,10.60
2023-04-16T08:53:38.171Z,10.60
2023-04-16T08:59:31.961Z,10.70
2023-04-16T09:05:26.580Z,10.60
2023-04-16T09:11:20.158Z,10.70
2023-04-16T09:17:15.218Z,11.00
2023-04-16T09:23:11.623Z,11.00
2023-04-16T09:29:05.147Z,11.10
2023-04-16T09:35:00.335Z,11.00
2023-04-16T09:41:08.797Z,11.00
2023-04-16T09:47:08.183Z,11.00
2023-04-16T09:53:03.510Z,11.10
2023-04-16T09:59:01.562Z,11.10
2023-04-16T10:04:55.070Z,11.20
2023-04-16T10:10:48.351Z,11.20
2023-04-16T10:16:44.054Z,11.30
2023-04-16T10:22:38.281Z,11.40
2023-04-16T10:28:32.575Z,11.50
2023-04-16T10:34:27.954Z,11.50
2023-04-16T10:40:25.013Z,11.40
2023-04-16T10:46:22.948Z,11.20
2023-04-16T10:52:18.370Z,11.30
2023-04-16T10:58:29.519Z,11.40
2023-04-16T11:04:31.158Z,11.40
2023-04-16T11:10:26.703Z,11.60
2023-04-16T11:16:20.278Z,11.40
2023-04-16T11:22:18.529Z,11.40
2023-04-16T11:28:13.412Z,11.50
2023-04-16T11:34:09.806Z,11.50
2023-04-16T11:40:04.749Z,11.60
2023-04-16T11:46:01.623Z,11.40
2023-04-16T11:51:56.456Z,11.50
2023-04-16T11:57:50.236Z,11.50
2023-04-16T12:03:49.664Z,11.30
2023-04-16T12:09:44.509Z,11.50
2023-04-16T12:15:46.337Z,11.60
2023-04-16T12:21:42.435Z,11.50
2023-04-16T12:27:53.373Z,11.30
2023-04-16T12:34:02.995Z,11.50
2023-04-16T12:39:57.920Z,11.60
2023-04-16T12:45:51.441Z,11.70
2023-04-16T12:51:44.521Z,11.60
2023-04-16T12:57:39.393Z,11.70
2023-04-16T13:03:32.665Z,11.60
2023-04-16T13:09:26.495Z,11.60
2023-04-16T13:15:21.062Z,11.50
2023-04-16T13:21:14.633Z,11.40
2023-04-16T13:27:08.865Z,11.30
2023-04-16T13:33:03.579Z,11.50
2023-04-16T13:38:56.693Z,11.80
2023-04-16T13:44:53.009Z,11.70
2023-04-16T13:50:47.939Z,11.80
2023-04-16T13:56:41.535Z,11.80
2023-04-16T14:02:34.980Z,11.80
2023-04-16T14:08:30.077Z,11.80
2023-04-16T14:14:23.167Z,12.00
2023-04-16T14:20:16.224Z,12.10
2023-04-16T14:26:11.080Z,12.00
2023-04-16T14:32:04.813Z,11.90
2023-04-16T14:37:58.335Z,11.90
2023-04-16T14:43:52.827Z,12.00
2023-04-16T14:49:46.435Z,11.90
2023-04-16T14:55:39.755Z,11.80
2023-04-16T15:01:34.655Z,11.90
2023-04-16T15:07:28.336Z,11.90
2023-04-16T15:13:21.838Z,11.90
2023-04-16T15:19:16.757Z,12.00
2023-04-16T15:25:10.563Z,11.90
2023-04-16T15:31:04.201Z,11.90
2023-04-16T15:36:59.098Z,12.00
2023-04-16T15:42:52.390Z,12.10
2023-04-16T15:48:46.103Z,12.00
2023-04-16T15:54:40.804Z,12.00
2023-04-16T16:00:33.877Z,12.00
2023-04-16T16:06:28.820Z,12.00
2023-04-16T16:12:23.453Z,11.80
2023-04-16T16:18:16.557Z,11.90
2023-04-16T16:24:10.155Z,11.90
2023-04-16T16:30:07.248Z,11.80
2023-04-16T16:36:00.945Z,11.80
2023-04-16T16:41:54.690Z,11.80
2023-04-16T16:47:49.182Z,11.90
2023-04-16T16:53:42.722Z,11.80
2023-04-16T16:59:36.300Z,11.70
2023-04-16T17:05:31.199Z,11.70
2023-04-16T17:11:27.621Z,11.60
2023-04-16T17:17:21.456Z,11.60
2023-04-16T17:23:16.761Z,11.60
2023-04-16T17:29:09.875Z,11.50
2023-04-16T17:35:05.063Z,11.50
2023-04-16T17:40:59.565Z,11.50
2023-04-16T17:46:52.751Z,11.40
2023-04-16T17:52:47.192Z,11.40
2023-04-16T17:58:42.087Z,11.40
2023-04-16T18:04:35.839Z,11.30
2023-04-16T18:10:32.163Z,11.30
2023-04-16T18:16:27.119Z,11.10
2023-04-16T18:22:21.299Z,11.10
2023-04-16T18:28:14.611Z,11.10
2023-04-16T18:34:09.607Z,11.00
2023-04-16T18:40:02.788Z,11.10
2023-04-16T18:45:56.486Z,11.10
2023-04-16T18:51:51.014Z,11.10
2023-04-16T18:57:44.082Z,11.10
2023-04-16T19:03:37.196Z,11.00
2023-04-16T19:09:32.384Z,11.10
2023-04-16T19:15:25.469Z,10.90
2023-04-16T19:21:18.944Z,11.10
2023-04-16T19:27:13.833Z,10.80
2023-04-16T19:33:07.370Z,10.90
2023-04-16T19:39:00.398Z,10.90
2023-04-16T19:44:54.919Z,10.90
2023-04-16T19:50:48.294Z,10.90
2023-04-16T19:56:41.511Z,10.80
2023-04-16T20:02:36.498Z,10.90
2023-04-16T20:08:30.102Z,10.70
2023-04-16T20:14:23.560Z,10.70
2023-04-16T20:20:18.581Z,10.80
2023-04-16T20:26:15.100Z,10.60
2023-04-16T20:32:08.184Z,10.60
2023-04-16T20:38:02.847Z,10.60
2023-04-16T20:43:56.353Z,10.70
2023-04-16T20:49:49.917Z,10.70
2023-04-16T20:55:46.298Z,10.60
2023-04-16T21:01:39.394Z,10.40
2023-04-16T21:07:32.946Z,10.30
2023-04-16T21:13:27.868Z,10.10
2023-04-16T21:19:21.429Z,10.10
2023-04-16T21:25:15.133Z,10.00
2023-04-16T21:31:10.182Z,9.90
2023-04-16T21:37:03.683Z,9.80
2023-04-16T21:42:56.708Z,9.80
2023-04-16T21:48:51.830Z,9.80
2023-04-16T21:54:44.883Z,9.80
2023-04-16T22:00:38.467Z,9.90
2023-04-16T22:06:32.969Z,10.10
2023-04-16T22:12:26.184Z,10.20
2023-04-16T22:18:19.386Z,10.10
2023-04-16T22:24:13.830Z,10.30
2023-04-16T22:30:08.708Z,10.20
2023-04-16T22:36:02.303Z,10.10
2023-04-16T22:41:57.309Z,10.20
2023-04-16T22:47:50.437Z,10.10
2023-04-16T22:53:43.933Z,10.10
2023-04-16T22:59:38.374Z,10.10
2023-04-16T23:05:31.557Z,9.90
2023-04-16T23:11:25.369Z,10.10
2023-04-16T23:17:19.746Z,10.00
2023-04-16T23:23:12.800Z,10.10
2023-04-16T23:29:05.863Z,9.90
2023-04-16T23:35:00.521Z,10.00
2023-04-16T23:40:53.869Z,9.90
2023-04-16T23:46:47.417Z,9.80
2023-04-16T23:52:42.300Z,9.70
2023-04-16T23:58:35.321Z,9.70
